• Join FlightAware (Why Join?)
  • Login
  • US Flag 
07:16AM EDT


 

Airport Tracker/Info


-or-


 

Live Flight TrackerFlight Track Log ✈ UCA3597 ✈ 28-Sep-2013 ✈ KIAD - KBGM

Flight Track Log - Related Links

Times and Time Zones

All times are in EDT time to prevent confusion due to time zone crossing. See the UCA3597 flight status page for this flight to view local times or setup timezone preferences in your user account.

Time Position Orientation Groundspeed Altitude Reporting Facility
EDT Latitude Longitude Course Direction KTS MPH feet Rate Location/Type
05:40PM 39.3113 -77.3021 19° North  Level Estimated
05:41PM 39.3720 -77.2757 19° North  Level Estimated
05:42PM 39.4326 -77.2492 19° North  Level Estimated
05:43PM 39.4932 -77.2226 19° North  Level Estimated
05:44PM 39.5538 -77.1960 19° North  Level Estimated
05:45PM 39.6144 -77.1693 19° North  Level Estimated
05:46PM 39.6750 -77.1426 19° North  Level Estimated
05:47PM 39.7356 -77.1159 19° North  Level Estimated
05:48PM 39.7962 -77.0891 19° North  Level Estimated
05:49PM 39.8568 -77.0623 19° North  Level Estimated
05:50PM 39.9173 -77.0354 19° North  Level Estimated
05:51PM 39.9779 -77.0085 19° North  Level Estimated
05:52PM 40.0385 -76.9815 19° North  Level Estimated
05:53PM 40.0990 -76.9545 19° North  Level Estimated
05:54PM 40.1596 -76.9274 19° North  Level Estimated
05:55PM 40.2201 -76.9003 19° North  Level Estimated
05:56PM 40.2806 -76.8731 19° North  Level Estimated
05:57PM 40.3412 -76.8459 19° North  Level Estimated
05:58PM 40.4017 -76.8186 19° North  Level Estimated
05:59PM 40.4622 -76.7913 19° North  Level Estimated
06:00PM 40.5227 -76.7639 19° North  Level Estimated
06:01PM 40.5832 -76.7365 19° North  Level Estimated
06:02PM 40.6437 -76.7090 19° North  Level Estimated
06:03PM 40.7042 -76.6815 19° North  Level Estimated
06:04PM 40.7647 -76.6539 19° North  Level Estimated
06:05PM 40.8252 -76.6263 19° North  Level Estimated
06:06PM 40.8856 -76.5986 19° North  Level Estimated
06:07PM 40.9461 -76.5709 19° North  Level Estimated
06:08PM 41.0065 -76.5432 19° North  Level Estimated
06:09PM 41.0670 -76.5153 19° North  Level Estimated
06:10PM 41.1274 -76.4875 19° North  Level Estimated
06:11PM 41.1879 -76.4595 19° North  Level Estimated
06:12PM 41.2483 -76.4316 19° North  Level Estimated
06:13PM 41.3087 -76.4036 19° North  Level Estimated
06:14PM 41.3691 -76.3755 19° North  Level Estimated
06:15PM 41.4296 -76.3474 19° North  Level Estimated
06:16PM 41.4900 -76.3192 19° North  Level Estimated
06:17PM 41.5504 -76.2909 19° North  Level Estimated
06:18PM 41.6107 -76.2626 19° North  Level Estimated
06:19PM 41.6711 -76.2343 19° North  Level Estimated
06:20PM 41.7315 -76.2059 19° North  Level Estimated
06:21PM 41.7919 -76.1775 19° North  Level Estimated
06:22PM 41.8522 -76.1490 19° North  Level Estimated
06:23PM 41.9126 -76.1204 19° North  Level Estimated
06:24PM 41.9729 -76.0918 19° North  Level Estimated
06:25PM 42.0333 -76.0631 19° North  Level Estimated
06:26PM 42.0936 -76.0344 19° North  Level Estimated
06:27PM 42.1539 -76.0057 19° North  Level Estimated
06:28PM 42.2084 -75.9796 19° North  Level Estimated
06:29PM 42.2084 -75.9796 35° Northeast  Level Estimated
06:30PM 42.2084 -75.9796 35° Northeast  Level Estimated
06:31PM 42.2084 -75.9796 35° Northeast  Level Estimated
06:32PM 42.2084 -75.9796 35° Northeast  Level Estimated
06:33PM 42.2084 -75.9796 35° Northeast  Level Estimated
06:34PM 42.2084 -75.9796 35° Northeast  Level Estimated
06:35PM 42.2084 -75.9796 35° Northeast  Level Estimated
06:36PM 42.2084 -75.9796 35° Northeast  Level Estimated
06:37PM 42.2084 -75.9796 35° Northeast  Level Estimated
06:38PM 42.2084 -75.9796 35° Northeast  Level Estimated
06:39PM 42.2084 -75.9796 35° Northeast  Level Estimated
06:40PM 42.2084 -75.9796 35° Northeast  Level Estimated
06:41PM 42.2084 -75.9796 35° Northeast  Level Estimated
06:42PM 42.2084 -75.9796 35° Northeast  Level Estimated
06:43PM 42.2084 -75.9796 35° Northeast  Level Estimated
06:44PM 42.2084 -75.9796 35° Northeast  Level Estimated